TVF88JV LFPO-LFSB
Flight info
| Callsign | TVF88JV |
|---|---|
| Flight time | N/A |
| Altitude | 37000 |
| Route | RANUX DCT MIRGU |
| Aircraft | A320/M-SDE3FGHIRWY/LB1 |
Departure
| Time | N/A |
|---|---|
| Airport | Paris-Orly Airport (LFPO) |
Arrival
| Time | 2026-05-07 14:31 |
|---|---|
| Airport | EuroAirport Basel–Mulhouse–Freiburg (LFSB) |
| Time | Latitude | Longitude | Altitude | Speed | Heading |
|---|---|---|---|---|---|
| 2026-05-07 14:02 | 48.61847 | 5.39404 | 18059 ft | 408 kts | 126° |
| 2026-05-07 14:02 | 48.60218 | 5.42919 | 18058 ft | 408 kts | 126° |
| 2026-05-07 14:02 | 48.58592 | 5.46421 | 18057 ft | 407 kts | 126° |
| 2026-05-07 14:02 | 48.56961 | 5.49930 | 18057 ft | 407 kts | 126° |
| 2026-05-07 14:03 | 48.55333 | 5.53435 | 18056 ft | 407 kts | 126° |
| 2026-05-07 14:03 | 48.53705 | 5.56935 | 18054 ft | 407 kts | 126° |
| 2026-05-07 14:03 | 48.52072 | 5.60432 | 18054 ft | 407 kts | 126° |
| 2026-05-07 14:03 | 48.50438 | 5.63921 | 18052 ft | 407 kts | 127° |
| 2026-05-07 14:04 | 48.48805 | 5.67411 | 18058 ft | 406 kts | 127° |
| 2026-05-07 14:04 | 48.47178 | 5.70893 | 18053 ft | 406 kts | 127° |
| 2026-05-07 14:04 | 48.45546 | 5.74384 | 18052 ft | 406 kts | 127° |
| 2026-05-07 14:04 | 48.43714 | 5.77589 | 18051 ft | 403 kts | 140° |
| 2026-05-07 14:05 | 48.41564 | 5.80211 | 18056 ft | 403 kts | 143° |
| 2026-05-07 14:05 | 48.39363 | 5.82823 | 18055 ft | 403 kts | 143° |
| 2026-05-07 14:05 | 48.37152 | 5.85427 | 18055 ft | 403 kts | 143° |
| 2026-05-07 14:05 | 48.34944 | 5.88021 | 18056 ft | 403 kts | 143° |
| 2026-05-07 14:06 | 48.32742 | 5.90640 | 18054 ft | 403 kts | 143° |
| 2026-05-07 14:06 | 48.30543 | 5.93250 | 18057 ft | 403 kts | 143° |
| 2026-05-07 14:06 | 48.28337 | 5.95851 | 17880 ft | 403 kts | 143° |
| 2026-05-07 14:06 | 48.26133 | 5.98439 | 17610 ft | 401 kts | 143° |
| 2026-05-07 14:07 | 48.23941 | 6.01010 | 17339 ft | 399 kts | 144° |
| 2026-05-07 14:07 | 48.21763 | 6.03565 | 17074 ft | 396 kts | 143° |
| 2026-05-07 14:07 | 48.19597 | 6.06104 | 16811 ft | 395 kts | 143° |
| 2026-05-07 14:07 | 48.17433 | 6.08638 | 16550 ft | 393 kts | 143° |
| 2026-05-07 14:08 | 48.15277 | 6.11154 | 16292 ft | 392 kts | 143° |
| 2026-05-07 14:08 | 48.13133 | 6.13652 | 16037 ft | 390 kts | 143° |
| 2026-05-07 14:08 | 48.10995 | 6.16142 | 15779 ft | 389 kts | 143° |
| 2026-05-07 14:08 | 48.08866 | 6.18624 | 15531 ft | 387 kts | 143° |
| 2026-05-07 14:09 | 48.06743 | 6.21093 | 15280 ft | 386 kts | 143° |
| 2026-05-07 14:09 | 48.04628 | 6.23548 | 15022 ft | 385 kts | 143° |
| 2026-05-07 14:09 | 48.02541 | 6.25967 | 14782 ft | 383 kts | 143° |
| 2026-05-07 14:09 | 48.00436 | 6.28407 | 14548 ft | 382 kts | 143° |
| 2026-05-07 14:10 | 47.98337 | 6.30842 | 14293 ft | 381 kts | 143° |
| 2026-05-07 14:10 | 47.96247 | 6.33264 | 14054 ft | 380 kts | 143° |
| 2026-05-07 14:10 | 47.94159 | 6.35680 | 13814 ft | 379 kts | 143° |
| 2026-05-07 14:10 | 47.92084 | 6.38081 | 13544 ft | 378 kts | 143° |
| 2026-05-07 14:11 | 47.90011 | 6.40475 | 13268 ft | 376 kts | 143° |
| 2026-05-07 14:11 | 47.87942 | 6.42860 | 12997 ft | 375 kts | 143° |
| 2026-05-07 14:11 | 47.85884 | 6.45231 | 12735 ft | 373 kts | 143° |
| 2026-05-07 14:11 | 47.83834 | 6.47592 | 12479 ft | 371 kts | 143° |
| 2026-05-07 14:12 | 47.81791 | 6.49940 | 12212 ft | 369 kts | 144° |
| 2026-05-07 14:12 | 47.79761 | 6.52270 | 11962 ft | 368 kts | 144° |
| 2026-05-07 14:12 | 47.77736 | 6.54593 | 11706 ft | 366 kts | 144° |
| 2026-05-07 14:12 | 47.75721 | 6.56900 | 11439 ft | 365 kts | 144° |
| 2026-05-07 14:13 | 47.73713 | 6.59194 | 11185 ft | 364 kts | 144° |
| 2026-05-07 14:13 | 47.71738 | 6.61456 | 10937 ft | 362 kts | 143° |
| 2026-05-07 14:13 | 47.69914 | 6.64047 | 10689 ft | 363 kts | 132° |
| 2026-05-07 14:13 | 47.68469 | 6.67115 | 10442 ft | 364 kts | 121° |
| 2026-05-07 14:14 | 47.67457 | 6.70555 | 10201 ft | 364 kts | 109° |
| 2026-05-07 14:14 | 47.66914 | 6.74221 | 9956 ft | 360 kts | 97° |
| 2026-05-07 14:14 | 47.66740 | 6.77805 | 9798 ft | 334 kts | 95° |
| 2026-05-07 14:14 | 47.66585 | 6.81118 | 9678 ft | 310 kts | 95° |
| 2026-05-07 14:15 | 47.66426 | 6.84256 | 9545 ft | 302 kts | 96° |
| 2026-05-07 14:15 | 47.66268 | 6.87334 | 9406 ft | 298 kts | 96° |
| 2026-05-07 14:15 | 47.66113 | 6.90368 | 9271 ft | 287 kts | 96° |
| 2026-05-07 14:15 | 47.65970 | 6.93222 | 9132 ft | 269 kts | 96° |
| 2026-05-07 14:16 | 47.65833 | 6.95958 | 9000 ft | 263 kts | 96° |
| 2026-05-07 14:16 | 47.65644 | 6.98679 | 8882 ft | 281 kts | 105° |
| 2026-05-07 14:16 | 47.64803 | 7.01304 | 8750 ft | 285 kts | 129° |
| 2026-05-07 14:16 | 47.63547 | 7.03588 | 8618 ft | 287 kts | 133° |
| 2026-05-07 14:17 | 47.62239 | 7.05824 | 8487 ft | 287 kts | 133° |
| 2026-05-07 14:17 | 47.60927 | 7.08049 | 8303 ft | 286 kts | 133° |
| 2026-05-07 14:17 | 47.59618 | 7.10262 | 8136 ft | 285 kts | 133° |
| 2026-05-07 14:17 | 47.58311 | 7.12461 | 8018 ft | 284 kts | 133° |
| 2026-05-07 14:18 | 47.57004 | 7.14667 | 8020 ft | 286 kts | 133° |
| 2026-05-07 14:18 | 47.55694 | 7.16889 | 8027 ft | 286 kts | 133° |
| 2026-05-07 14:18 | 47.54828 | 7.18360 | 8033 ft | 286 kts | 133° |
| 2026-05-07 14:18 | 47.53520 | 7.20590 | 8046 ft | 286 kts | 133° |
| 2026-05-07 14:19 | 47.52221 | 7.22815 | 8063 ft | 286 kts | 133° |
| 2026-05-07 14:19 | 47.50499 | 7.25778 | 8096 ft | 286 kts | 133° |
| 2026-05-07 14:19 | 47.49624 | 7.27288 | 8114 ft | 287 kts | 133° |
| 2026-05-07 14:19 | 47.47898 | 7.30250 | 8080 ft | 287 kts | 133° |
| 2026-05-07 14:20 | 47.47017 | 7.31757 | 8080 ft | 287 kts | 133° |
| 2026-05-07 14:20 | 47.45724 | 7.33998 | 8076 ft | 287 kts | 132° |
| 2026-05-07 14:20 | 47.44440 | 7.36260 | 8076 ft | 286 kts | 132° |
| 2026-05-07 14:20 | 47.43151 | 7.38501 | 8083 ft | 286 kts | 133° |
| 2026-05-07 14:21 | 47.41862 | 7.40692 | 8067 ft | 286 kts | 133° |
| 2026-05-07 14:21 | 47.40549 | 7.42892 | 8055 ft | 286 kts | 134° |
| 2026-05-07 14:21 | 47.39233 | 7.45090 | 8051 ft | 286 kts | 134° |
| 2026-05-07 14:21 | 47.37912 | 7.47290 | 7907 ft | 285 kts | 133° |
| 2026-05-07 14:22 | 47.36174 | 7.50216 | 7581 ft | 283 kts | 133° |
| 2026-05-07 14:22 | 47.35311 | 7.51664 | 7348 ft | 284 kts | 133° |
| 2026-05-07 14:22 | 47.34008 | 7.53837 | 7149 ft | 283 kts | 133° |
| 2026-05-07 14:22 | 47.32705 | 7.56012 | 7045 ft | 282 kts | 133° |
| 2026-05-07 14:23 | 47.31396 | 7.58186 | 7034 ft | 283 kts | 132° |
| 2026-05-07 14:23 | 47.30324 | 7.60613 | 7032 ft | 285 kts | 112° |
| 2026-05-07 14:23 | 47.30004 | 7.63446 | 7038 ft | 276 kts | 85° |
| 2026-05-07 14:23 | 47.30471 | 7.66073 | 7065 ft | 257 kts | 62° |
| 2026-05-07 14:24 | 47.31553 | 7.68010 | 7095 ft | 238 kts | 34° |
| 2026-05-07 14:24 | 47.32986 | 7.69032 | 7067 ft | 222 kts | 11° |
| 2026-05-07 14:24 | 47.34482 | 7.69245 | 7024 ft | 212 kts | 353° |
| 2026-05-07 14:24 | 47.35918 | 7.68832 | 6805 ft | 209 kts | 337° |
| 2026-05-07 14:25 | 47.37207 | 7.67976 | 6625 ft | 206 kts | 330° |
| 2026-05-07 14:25 | 47.38496 | 7.67071 | 6278 ft | 204 kts | 332° |
| 2026-05-07 14:25 | 47.39784 | 7.66196 | 5877 ft | 203 kts | 333° |
| 2026-05-07 14:25 | 47.41047 | 7.65338 | 5456 ft | 195 kts | 333° |
| 2026-05-07 14:26 | 47.42227 | 7.64529 | 5112 ft | 179 kts | 333° |
| 2026-05-07 14:26 | 47.43312 | 7.63771 | 5003 ft | 165 kts | 332° |
| 2026-05-07 14:26 | 47.44340 | 7.63064 | 4800 ft | 162 kts | 332° |
| 2026-05-07 14:26 | 47.45361 | 7.62362 | 4560 ft | 161 kts | 333° |
| 2026-05-07 14:27 | 47.46340 | 7.61684 | 4378 ft | 152 kts | 332° |
| 2026-05-07 14:27 | 47.47296 | 7.61015 | 4076 ft | 152 kts | 332° |
| 2026-05-07 14:27 | 47.48247 | 7.60347 | 3752 ft | 149 kts | 333° |
| 2026-05-07 14:27 | 47.49173 | 7.59701 | 3468 ft | 143 kts | 333° |
| 2026-05-07 14:28 | 47.50067 | 7.59090 | 3162 ft | 141 kts | 334° |
| 2026-05-07 14:28 | 47.50949 | 7.58482 | 2928 ft | 138 kts | 333° |
| 2026-05-07 14:28 | 47.51823 | 7.57895 | 2836 ft | 138 kts | 333° |
| 2026-05-07 14:28 | 47.52694 | 7.57293 | 2698 ft | 139 kts | 333° |
| 2026-05-07 14:29 | 47.53568 | 7.56672 | 2489 ft | 139 kts | 333° |
| 2026-05-07 14:29 | 47.54462 | 7.56056 | 2239 ft | 144 kts | 334° |
| 2026-05-07 14:29 | 47.55364 | 7.55436 | 2010 ft | 144 kts | 333° |
| 2026-05-07 14:29 | 47.56258 | 7.54825 | 1756 ft | 141 kts | 331° |
| 2026-05-07 14:30 | 47.57131 | 7.54209 | 1524 ft | 138 kts | 335° |
| 2026-05-07 14:30 | 47.57992 | 7.53608 | 1303 ft | 137 kts | 335° |
| 2026-05-07 14:30 | 47.58855 | 7.53008 | 1095 ft | 135 kts | 336° |
| 2026-05-07 14:30 | 47.59702 | 7.52416 | 903 ft | 134 kts | 336° |
| 2026-05-07 14:31 | 47.60407 | 7.51933 | 882 ft | 72 kts | 335° |
| 2026-05-07 14:31 | 47.60773 | 7.51684 | 882 ft | 48 kts | 335° |
| 2026-05-07 14:31 | 47.61012 | 7.51532 | 875 ft | 18 kts | 2° |
| 2026-05-07 14:31 | 47.61057 | 7.51621 | 874 ft | 9 kts | 58° |
| 2026-05-07 14:32 | 47.61085 | 7.51701 | 874 ft | 9 kts | 74° |
| 2026-05-07 14:32 | 47.61059 | 7.51774 | 875 ft | 7 kts | 143° |
| 2026-05-07 14:32 | 47.60994 | 7.51821 | 876 ft | 15 kts | 159° |
| 2026-05-07 14:32 | 47.60894 | 7.51895 | 879 ft | 15 kts | 155° |
| 2026-05-07 14:33 | 47.60814 | 7.51944 | 881 ft | 11 kts | 156° |
| 2026-05-07 14:33 | 47.60746 | 7.51991 | 881 ft | 10 kts | 154° |
| 2026-05-07 14:33 | 47.60689 | 7.52032 | 881 ft | 8 kts | 154° |
| 2026-05-07 14:33 | 47.60641 | 7.52066 | 882 ft | 7 kts | 154° |
| 2026-05-07 14:34 | 47.60564 | 7.52120 | 882 ft | 20 kts | 154° |
| 2026-05-07 14:34 | 47.60442 | 7.52206 | 883 ft | 18 kts | 154° |
| 2026-05-07 14:34 | 47.60318 | 7.52294 | 886 ft | 21 kts | 154° |
| 2026-05-07 14:34 | 47.60184 | 7.52387 | 890 ft | 22 kts | 155° |
| 2026-05-07 14:35 | 47.60043 | 7.52486 | 890 ft | 20 kts | 153° |
| 2026-05-07 14:35 | 47.59933 | 7.52573 | 890 ft | 16 kts | 151° |
| 2026-05-07 14:35 | 47.59836 | 7.52647 | 890 ft | 13 kts | 151° |
| 2026-05-07 14:35 | 47.59840 | 7.52683 | 890 ft | 1 kts | 56° |
| 2026-05-07 14:36 | 47.59841 | 7.52686 | 890 ft | 0 kts | 59° |
| 2026-05-07 14:36 | 47.59841 | 7.52687 | 890 ft | 0 kts | 61° |
| 2026-05-07 14:36 | 47.59847 | 7.52740 | 890 ft | 8 kts | 69° |
| 2026-05-07 14:36 | 47.59858 | 7.52775 | 890 ft | 1 kts | 65° |
| 2026-05-07 14:37 | 47.59861 | 7.52785 | 890 ft | 2 kts | 65° |
| 2026-05-07 14:37 | 47.59866 | 7.52802 | 890 ft | 0 kts | 65° |
| 2026-05-07 14:37 | 47.59868 | 7.52807 | 890 ft | 0 kts | 65° |